Time;durP1;ratioP1;P1;durP2;ratioP2;P2;SDS_P1;SDS_P2;PMS_P1;PMS_P2;Temp;Humidity;BMP_temperature;BMP_pressure;BME280_temperature;BME280_humidity;BME280_pressure;Samples;Min_cycle;Max_cycle;Signal;HPM_P1;HPM_P2
2020/12/25 00:01:29;;;;;;;4.00;2.30;;;6.80;95.30;14.40;98759.00;;;;5029949;28;20195;-69
2020/12/25 00:03:56;;;;;;;4.60;2.30;;;6.80;95.30;14.10;98770.00;;;;5013085;28;20553;-70
2020/12/25 00:06:22;;;;;;;4.50;2.55;;;6.80;95.30;14.30;98766.00;;;;5013360;28;20222;-69
2020/12/25 00:08:48;;;;;;;3.55;2.10;;;6.80;95.30;14.10;98773.00;;;;5030038;28;20214;-69
2020/12/25 00:11:14;;;;;;;4.00;2.37;;;6.80;95.30;14.10;98772.00;;;;5029265;28;20178;-69
2020/12/25 00:13:40;;;;;;;4.00;2.40;;;6.80;95.30;14.20;98772.00;;;;5030002;28;20779;-69
2020/12/25 00:16:05;;;;;;;4.03;2.33;;;6.80;95.30;14.30;98777.00;;;;5012519;28;20229;-69
2020/12/25 00:18:31;;;;;;;4.67;2.40;;;6.80;95.30;14.10;98780.00;;;;5030548;28;20543;-70
2020/12/25 00:20:57;;;;;;;3.93;2.07;;;6.80;95.30;14.20;98773.00;;;;4996781;28;20183;-68
2020/12/25 00:23:22;;;;;;;3.30;2.10;;;6.80;95.30;14.40;98780.00;;;;5012985;28;20242;-68
2020/12/25 00:25:48;;;;;;;4.10;2.23;;;6.80;95.70;14.00;98772.00;;;;5029134;28;20233;-69
2020/12/25 00:28:14;;;;;;;4.60;2.30;;;6.80;95.30;14.00;98774.00;;;;5012519;28;20215;-69
2020/12/25 00:30:43;;;;;;;4.17;2.07;;;6.80;95.30;14.10;98770.00;;;;5029461;28;20304;-69
2020/12/25 00:33:10;;;;;;;3.80;2.08;;;6.80;95.30;14.20;98770.00;;;;5012741;28;20251;-69
2020/12/25 00:35:35;;;;;;;4.18;2.50;;;6.80;95.30;13.80;98782.00;;;;4996256;28;20230;-69
2020/12/25 00:38:01;;;;;;;4.00;2.27;;;6.70;95.20;14.10;98782.00;;;;5012698;28;20198;-69
2020/12/25 00:40:27;;;;;;;5.10;2.93;;;6.80;95.30;14.00;98783.00;;;;5028997;28;20534;-69
2020/12/25 00:42:52;;;;;;;3.47;1.97;;;6.80;95.30;14.20;98796.00;;;;5028957;28;20202;-69
2020/12/25 00:45:19;;;;;;;4.30;2.43;;;6.70;95.20;13.90;98798.00;;;;5029415;28;20221;-69
2020/12/25 00:47:45;;;;;;;3.75;1.95;;;6.80;95.60;14.20;98795.00;;;;5012686;28;20588;-68
2020/12/25 00:50:11;;;;;;;3.95;2.35;;;6.80;95.30;14.20;98816.00;;;;4995918;28;20186;-69
2020/12/25 00:52:36;;;;;;;4.17;2.50;;;6.70;95.20;13.90;98830.00;;;;4996053;28;20310;-68
2020/12/25 00:55:03;;;;;;;3.70;2.00;;;6.80;95.30;13.80;98817.00;;;;4995630;28;20424;-68
2020/12/25 00:57:28;;;;;;;3.80;2.05;;;6.80;95.30;14.20;98810.00;;;;5030317;28;20207;-68
2020/12/25 00:59:54;;;;;;;5.17;2.10;;;6.80;95.20;14.10;98807.00;;;;5011810;28;20241;-68
2020/12/25 01:02:20;;;;;;;3.57;1.97;;;6.80;95.30;13.90;98810.00;;;;5029553;28;20219;-68
2020/12/25 01:04:45;;;;;;;4.00;2.10;;;6.80;95.20;14.10;98810.00;;;;5011471;28;20278;-68
2020/12/25 01:07:11;;;;;;;3.83;1.97;;;6.70;95.20;13.90;98826.00;;;;5027696;28;20199;-68
2020/12/25 01:09:37;;;;;;;4.10;2.33;;;6.80;95.20;14.00;98831.00;;;;5028806;28;20175;-68
2020/12/25 01:12:03;;;;;;;3.63;2.00;;;6.80;95.20;14.10;98825.00;;;;5028452;28;20206;-68
2020/12/25 01:14:32;;;;;;;3.85;2.05;;;6.70;95.20;14.10;98827.00;;;;4995716;28;20209;-69
2020/12/25 01:16:58;;;;;;;4.40;2.25;;;6.80;95.20;14.00;98834.00;;;;5029801;28;20202;-68
2020/12/25 01:19:25;;;;;;;3.67;2.07;;;6.70;95.20;14.10;98830.00;;;;5012091;28;20237;-68
2020/12/25 01:21:51;;;;;;;4.22;2.20;;;6.80;95.20;14.20;98823.00;;;;5029254;28;20691;-69
2020/12/25 01:24:16;;;;;;;3.67;2.07;;;6.70;95.20;13.90;98836.00;;;;5012182;28;20270;-69
2020/12/25 01:26:42;;;;;;;3.83;1.80;;;6.80;95.20;13.80;98837.00;;;;5011631;28;20500;-69
2020/12/25 01:29:08;;;;;;;4.20;2.10;;;6.80;95.20;13.80;98833.00;;;;5012101;28;20210;-69
2020/12/25 01:31:33;;;;;;;4.03;2.10;;;6.70;95.10;14.10;98841.00;;;;4979213;28;20666;-69
2020/12/25 01:33:59;;;;;;;3.90;2.33;;;6.70;95.20;13.90;98841.00;;;;5028115;28;20650;-69
2020/12/25 01:36:25;;;;;;;4.50;2.50;;;6.80;95.20;13.90;98839.00;;;;4994892;28;20256;-69
2020/12/25 01:38:51;;;;;;;4.27;1.80;;;6.80;95.20;13.90;98856.00;;;;5028610;28;20437;-68
2020/12/25 01:41:16;;;;;;;3.53;1.80;;;6.80;95.20;14.00;98862.00;;;;5027856;28;20263;-68
2020/12/25 01:43:42;;;;;;;4.47;2.27;;;6.70;95.20;13.90;98856.00;;;;5015288;28;20332;-68
2020/12/25 01:46:08;;;;;;;4.00;2.17;;;6.70;95.10;14.00;98862.00;;;;4982476;28;20183;-68
2020/12/25 01:48:34;;;;;;;3.87;2.30;;;6.70;95.10;14.20;98853.00;;;;4999290;28;20364;-68
2020/12/25 01:50:59;;;;;;;3.73;2.13;;;6.70;95.10;14.00;98859.00;;;;4982669;28;20197;-68
2020/12/25 01:53:25;;;;;;;3.57;1.97;;;6.70;95.10;14.00;98869.00;;;;4999463;28;20262;-68
2020/12/25 01:55:51;;;;;;;4.03;2.17;;;6.80;95.20;14.00;98854.00;;;;5015156;28;20187;-68
2020/12/25 01:58:17;;;;;;;4.30;2.20;;;6.70;95.10;14.00;98860.00;;;;4999418;28;20206;-68
2020/12/25 02:00:43;;;;;;;3.85;2.10;;;6.70;95.10;14.00;98860.00;;;;4998809;28;20345;-68
2020/12/25 02:03:08;;;;;;;3.50;2.10;;;6.70;95.10;14.00;98857.00;;;;4982672;28;20459;-68
2020/12/25 02:05:35;;;;;;;4.27;2.00;;;6.70;95.10;14.00;98862.00;;;;5032167;28;20187;-69
2020/12/25 02:08:01;;;;;;;4.30;2.00;;;6.70;95.10;13.90;98848.00;;;;4999040;28;20242;-69
2020/12/25 02:10:26;;;;;;;4.07;2.00;;;6.70;95.10;14.10;98813.00;;;;5032512;28;20443;-68
2020/12/25 02:12:52;;;;;;;4.70;2.37;;;6.70;95.10;14.10;98843.00;;;;4998614;28;20202;-69
2020/12/25 02:15:18;;;;;;;4.80;2.30;;;6.70;95.10;14.10;98844.00;;;;4999284;28;20249;-69
2020/12/25 02:17:47;;;;;;;4.17;2.00;;;6.70;95.50;14.10;98842.00;;;;5030800;28;20194;-69
2020/12/25 02:20:14;;;;;;;4.07;2.10;;;6.70;95.10;13.90;98851.00;;;;4999686;28;20213;-69
2020/12/25 02:22:39;;;;;;;4.00;1.95;;;6.70;95.10;14.00;98858.00;;;;4998061;28;20215;-69
2020/12/25 02:25:06;;;;;;;3.70;2.00;;;6.70;95.10;14.20;98850.00;;;;5014896;28;20645;-69
2020/12/25 02:27:32;;;;;;;3.85;1.90;;;6.70;95.10;13.90;98861.00;;;;4982296;28;20261;-69
2020/12/25 02:29:57;;;;;;;4.20;2.30;;;6.70;95.10;14.20;98848.00;;;;5015105;28;20637;-69
2020/12/25 02:32:23;;;;;;;3.83;1.90;;;6.70;95.10;14.00;98861.00;;;;5030495;28;20465;-68
2020/12/25 02:34:48;;;;;;;3.83;1.90;;;6.70;95.10;13.90;98848.00;;;;5015404;28;20194;-68
2020/12/25 02:37:14;;;;;;;3.73;1.80;;;6.70;95.10;14.10;98850.00;;;;5030603;28;20763;-69
2020/12/25 02:39:40;;;;;;;3.93;2.30;;;6.70;95.10;14.20;98846.00;;;;5014586;28;20554;-68
2020/12/25 02:42:10;;;;;;;4.10;2.00;;;6.70;95.10;14.00;98850.00;;;;4998242;28;20203;-69
2020/12/25 02:44:35;;;;;;;3.90;1.75;;;6.70;95.10;13.90;98855.00;;;;4998776;28;20210;-68
2020/12/25 02:47:01;;;;;;;3.90;2.30;;;6.70;95.00;14.00;98845.00;;;;4998225;28;20241;-68
2020/12/25 02:49:27;;;;;;;3.80;1.97;;;6.70;95.00;14.20;98848.00;;;;5032533;28;20211;-69
2020/12/25 02:51:53;;;;;;;3.67;1.77;;;6.70;95.00;14.20;98855.00;;;;5013498;28;20652;-68
2020/12/25 02:54:18;;;;;;;3.55;1.92;;;6.70;95.00;14.10;98855.00;;;;5014499;28;20178;-68
2020/12/25 02:56:45;;;;;;;4.07;1.97;;;6.70;95.00;14.00;98863.00;;;;4981679;28;20277;-68
2020/12/25 02:59:15;;;;;;;4.47;2.58;;;6.70;95.00;14.00;98860.00;;;;4981774;28;20187;-69
2020/12/25 03:01:41;;;;;;;3.80;2.00;;;6.70;95.00;14.20;98856.00;;;;5014084;28;20211;-68
2020/12/25 03:04:07;;;;;;;4.93;1.90;;;6.70;95.00;14.10;98851.00;;;;4998121;28;20534;-69
2020/12/25 03:06:32;;;;;;;3.43;1.70;;;6.70;95.00;14.10;98853.00;;;;5030066;28;20295;-68
2020/12/25 03:08:58;;;;;;;4.63;1.90;;;6.70;95.00;14.00;98857.00;;;;5031021;28;20214;-68
2020/12/25 03:11:24;;;;;;;3.50;1.63;;;6.70;95.00;14.20;98860.00;;;;5014506;28;20626;-68
2020/12/25 03:13:50;;;;;;;3.63;1.70;;;6.70;95.00;13.90;98861.00;;;;5030202;28;20179;-69
2020/12/25 03:16:16;;;;;;;4.17;2.30;;;6.70;95.00;13.90;98862.00;;;;5030486;28;20554;-68
2020/12/25 03:18:41;;;;;;;3.77;1.93;;;6.70;95.00;13.80;98873.00;;;;5030297;28;20186;-69
2020/12/25 03:21:07;;;;;;;3.60;1.73;;;6.70;95.00;14.00;98883.00;;;;5030608;28;20186;-68
2020/12/25 03:23:33;;;;;;;3.83;1.90;;;6.70;95.00;14.20;98876.00;;;;5031438;28;20186;-68
2020/12/25 03:25:58;;;;;;;3.53;1.70;;;6.70;95.00;13.90;98888.00;;;;5030681;28;20233;-69
2020/12/25 03:28:24;;;;;;;3.37;1.80;;;6.70;94.90;13.80;98892.00;;;;5013532;28;20473;-68
2020/12/25 03:30:50;;;;;;;3.33;1.60;;;6.70;95.00;14.10;98887.00;;;;5030179;28;20515;-68
2020/12/25 03:33:15;;;;;;;3.40;1.57;;;6.70;94.90;14.00;98887.00;;;;5029722;28;20261;-68
2020/12/25 03:35:41;;;;;;;3.30;1.80;;;6.70;95.00;14.10;98899.00;;;;5030301;28;20226;-68
2020/12/25 03:38:07;;;;;;;3.43;1.80;;;6.70;94.90;14.00;98889.00;;;;5031729;28;20194;-68
2020/12/25 03:40:34;;;;;;;3.30;1.63;;;6.70;94.90;13.90;98881.00;;;;5029999;28;20273;-68
2020/12/25 03:43:00;;;;;;;3.22;1.50;;;6.70;94.90;14.20;98887.00;;;;5013164;28;20235;-69
2020/12/25 03:45:27;;;;;;;3.40;1.80;;;6.70;94.90;14.10;98879.00;;;;5013850;28;20183;-69
2020/12/25 03:47:53;;;;;;;3.30;1.60;;;6.70;94.90;14.20;98879.00;;;;5012849;28;20584;-69
2020/12/25 03:50:18;;;;;;;3.67;1.90;;;6.70;94.90;14.10;98878.00;;;;5031247;28;20178;-68
2020/12/25 03:52:44;;;;;;;4.00;2.30;;;6.60;94.80;13.90;98884.00;;;;5013197;28;20697;-68
2020/12/25 03:55:10;;;;;;;4.10;2.00;;;6.70;94.90;13.80;98879.00;;;;5029667;28;20274;-68
2020/12/25 03:57:35;;;;;;;3.30;1.60;;;6.60;94.90;13.80;98893.00;;;;5029121;28;20203;-68
2020/12/25 04:00:01;;;;;;;3.73;1.97;;;6.60;95.20;14.10;98893.00;;;;4997539;28;20237;-68
2020/12/25 04:02:27;;;;;;;3.40;1.80;;;6.70;94.90;13.80;98896.00;;;;5029093;28;20585;-68
2020/12/25 04:04:52;;;;;;;3.60;2.00;;;6.60;94.80;13.90;98899.00;;;;5012789;28;20557;-69
2020/12/25 04:07:18;;;;;;;3.63;1.77;;;6.70;94.90;14.00;98897.00;;;;5013612;28;20207;-68
2020/12/25 04:09:44;;;;;;;3.60;1.90;;;6.60;94.80;14.00;98886.00;;;;5030138;28;20197;-69
2020/12/25 04:12:09;;;;;;;3.50;1.90;;;6.70;94.90;13.80;98895.00;;;;4997328;28;20302;-69
2020/12/25 04:14:35;;;;;;;3.50;1.70;;;6.60;94.80;13.80;98898.00;;;;4996871;28;20530;-69
2020/12/25 04:17:01;;;;;;;3.50;1.80;;;6.70;94.90;14.00;98902.00;;;;5030520;28;20199;-69
2020/12/25 04:19:26;;;;;;;3.53;1.83;;;6.60;94.80;13.80;98912.00;;;;5030710;28;20183;-69
2020/12/25 04:21:52;;;;;;;3.50;1.73;;;6.60;94.80;14.00;98914.00;;;;4996907;28;20807;-69
2020/12/25 04:24:18;;;;;;;3.60;1.87;;;6.70;94.90;14.00;98918.00;;;;5028993;28;20237;-69
2020/12/25 04:26:47;;;;;;;3.90;2.20;;;6.60;94.80;14.00;98901.00;;;;5030893;28;20617;-69
2020/12/25 04:29:13;;;;;;;3.55;1.90;;;6.60;94.80;14.10;98912.00;;;;5013220;28;20210;-69
2020/12/25 04:31:39;;;;;;;4.10;2.60;;;6.60;94.80;13.90;98922.00;;;;5012599;28;20596;-69
2020/12/25 04:34:04;;;;;;;4.50;2.03;;;6.60;94.80;14.00;98911.00;;;;4995864;28;20559;-69
2020/12/25 04:36:30;;;;;;;4.20;2.00;;;6.60;94.80;13.90;98918.00;;;;5013020;28;20717;-69
2020/12/25 04:38:56;;;;;;;3.40;1.90;;;6.60;94.80;13.80;98919.00;;;;5028424;28;20193;-69
2020/12/25 04:41:22;;;;;;;4.03;2.00;;;6.60;94.80;13.70;98928.00;;;;5012697;28;20256;-69
2020/12/25 04:43:47;;;;;;;4.00;2.05;;;6.60;94.80;13.80;98927.00;;;;5012271;28;20190;-69
2020/12/25 04:46:13;;;;;;;3.83;2.00;;;6.60;94.80;13.70;98921.00;;;;4979965;28;20194;-69
2020/12/25 04:48:39;;;;;;;3.37;1.70;;;6.60;94.80;13.90;98932.00;;;;5028211;28;20260;-69
2020/12/25 04:51:05;;;;;;;4.40;2.30;;;6.60;94.80;13.90;98939.00;;;;5028598;28;20442;-69
2020/12/25 04:53:31;;;;;;;4.20;2.15;;;6.60;94.80;14.00;98932.00;;;;5028711;28;20584;-68
2020/12/25 04:55:57;;;;;;;4.13;1.83;;;6.60;94.70;13.90;98930.00;;;;4996213;28;20183;-68
2020/12/25 04:58:24;;;;;;;3.13;1.77;;;6.60;94.70;14.00;98929.00;;;;5010205;28;21057;-69
2020/12/25 05:01:06;;;;;;;3.42;1.85;;;6.60;94.80;14.00;98931.00;;;;4979649;28;20278;-69
2020/12/25 05:03:35;;;;;;;3.33;1.95;;;6.60;94.80;13.90;98934.00;;;;4995668;28;20237;-69
2020/12/25 05:06:09;;;;;;;3.35;1.80;;;6.60;94.80;14.00;98941.00;;;;4995989;28;20549;-68
2020/12/25 05:08:43;;;;;;;3.40;2.08;;;6.60;94.70;13.80;98937.00;;;;5012340;28;20267;-69
2020/12/25 05:11:10;;;;;;;4.07;2.25;;;6.60;94.70;14.00;98946.00;;;;5029171;28;20233;-69
2020/12/25 05:13:43;;;;;;;3.45;2.00;;;6.60;94.70;13.70;98955.00;;;;4979063;28;20191;-69
2020/12/25 05:16:09;;;;;;;3.13;1.70;;;6.60;94.70;14.00;98961.00;;;;5012575;28;20187;-68
2020/12/25 05:18:34;;;;;;;4.27;2.30;;;6.60;94.70;13.60;98966.00;;;;4977942;28;20192;-68
2020/12/25 05:21:08;;;;;;;3.77;1.97;;;6.60;95.10;13.90;98968.00;;;;5011175;28;20689;-69
2020/12/25 05:23:34;;;;;;;3.72;2.10;;;6.60;94.70;13.90;98971.00;;;;5028671;28;20191;-68
2020/12/25 05:26:00;;;;;;;3.95;2.00;;;6.60;94.70;13.90;98957.00;;;;4995508;28;20237;-69
2020/12/25 05:28:29;;;;;;;3.53;2.10;;;6.60;94.70;13.90;98956.00;;;;5028082;28;20309;-69
2020/12/25 05:30:59;;;;;;;3.80;1.75;;;6.60;94.70;13.90;98940.00;;;;5028331;28;20677;-69
2020/12/25 05:33:26;;;;;;;4.15;2.10;;;6.60;94.70;13.90;98935.00;;;;5028035;28;20207;-69
2020/12/25 05:35:54;;;;;;;4.40;2.30;;;6.60;94.70;14.10;98933.00;;;;4995633;28;20222;-68
2020/12/25 05:38:20;;;;;;;3.95;1.85;;;6.60;94.70;14.10;98938.00;;;;4996441;28;20226;-69
2020/12/25 05:40:45;;;;;;;3.70;2.20;;;6.60;94.70;13.90;98939.00;;;;4994844;28;20186;-68
2020/12/25 05:43:18;;;;;;;3.77;2.00;;;6.60;94.70;13.90;98945.00;;;;5012193;28;20548;-69
2020/12/25 05:45:43;;;;;;;3.80;1.80;;;6.60;94.70;14.00;98949.00;;;;4995441;28;20680;-68
2020/12/25 05:48:09;;;;;;;3.80;2.10;;;6.60;94.70;13.90;98957.00;;;;5011301;28;20219;-69
2020/12/25 05:50:36;;;;;;;3.73;2.10;;;6.60;94.60;13.90;98965.00;;;;4979435;28;20599;-69
2020/12/25 05:53:02;;;;;;;3.35;1.98;;;6.50;94.60;14.00;98967.00;;;;4995724;28;20461;-69
2020/12/25 05:55:28;;;;;;;4.07;2.53;;;6.60;94.70;13.90;98968.00;;;;4994966;28;20569;-69
2020/12/25 05:57:54;;;;;;;3.90;2.13;;;6.60;94.70;13.90;98968.00;;;;5012284;28;20466;-69
2020/12/25 06:00:25;;;;;;;3.55;1.90;;;6.50;94.60;14.00;98965.00;;;;5011624;28;20171;-68
2020/12/25 06:02:53;;;;;;;3.50;2.10;;;6.60;94.60;13.80;98963.00;;;;5012009;28;20206;-68
2020/12/25 06:05:19;;;;;;;3.35;1.63;;;6.60;94.60;13.70;98968.00;;;;5027782;28;20222;-69
2020/12/25 06:07:53;;;;;;;3.60;2.13;;;6.50;94.60;13.80;98973.00;;;;5028095;28;20210;-68
2020/12/25 06:10:26;;;;;;;3.58;1.90;;;6.50;94.60;13.80;98973.00;;;;5011037;28;20249;-68
2020/12/25 06:12:53;;;;;;;3.28;1.70;;;6.50;94.60;14.00;98979.00;;;;5011753;28;20698;-68
2020/12/25 06:15:29;;;;;;;3.60;1.60;;;6.50;94.60;13.90;98974.00;;;;4994927;28;20592;-68
2020/12/25 06:18:34;;;;;;;3.53;1.70;;;6.50;94.60;13.70;98980.00;;;;5011517;28;20285;-68
2020/12/25 06:21:28;;;;;;;3.78;2.20;;;6.50;94.60;13.80;98988.00;;;;5028356;28;20190;-68
2020/12/25 06:23:54;;;;;;;3.47;1.95;;;6.50;94.60;13.70;98987.00;;;;5011173;28;20215;-68
2020/12/25 06:26:19;;;;;;;3.20;1.83;;;6.50;94.60;13.80;98981.00;;;;4995056;28;20650;-68
2020/12/25 06:28:47;;;;;;;3.70;1.80;;;6.50;94.60;13.80;98988.00;;;;5013054;28;20276;-68
2020/12/25 06:31:46;;;;;;;4.10;2.00;;;6.50;95.00;13.90;98992.00;;;;4998139;28;20187;-68
2020/12/25 06:34:11;;;;;;;3.63;1.67;;;6.50;94.60;13.80;98998.00;;;;5001977;28;20210;-68
2020/12/25 06:36:44;;;;;;;3.50;1.63;;;6.50;94.60;13.80;99006.00;;;;5030796;28;20265;-68
2020/12/25 06:39:13;;;;;;;3.28;1.80;;;6.50;94.60;13.80;99007.00;;;;5016451;28;20187;-68
2020/12/25 06:41:39;;;;;;;3.83;2.00;;;6.50;94.60;13.80;99008.00;;;;5014894;28;20206;-68
2020/12/25 06:44:15;;;;;;;4.00;2.50;;;6.50;94.60;13.70;99000.00;;;;4998201;28;20178;-68
2020/12/25 06:46:50;;;;;;;3.92;1.90;;;6.50;94.60;13.80;99011.00;;;;5031127;28;20199;-68
2020/12/25 06:49:21;;;;;;;3.45;2.15;;;6.50;94.60;13.60;99017.00;;;;5032498;28;20256;-68
2020/12/25 06:51:47;;;;;;;3.90;2.20;;;6.50;94.60;13.60;99007.00;;;;5014809;28;20210;-68
2020/12/25 06:54:20;;;;;;;3.88;2.10;;;6.50;94.60;13.70;99030.00;;;;4998667;28;20541;-68
2020/12/25 06:56:53;;;;;;;3.15;1.80;;;6.50;94.60;13.80;99029.00;;;;5015665;28;20199;-69
2020/12/25 06:59:23;;;;;;;3.42;1.90;;;6.50;94.60;13.70;99037.00;;;;4981914;28;20194;-68
2020/12/25 07:01:50;;;;;;;3.90;2.08;;;6.50;95.00;13.50;99028.00;;;;4998240;28;20253;-68
2020/12/25 07:04:30;;;;;;;3.70;2.20;;;6.50;94.60;13.80;99036.00;;;;5030332;28;20546;-68
2020/12/25 07:07:06;;;;;;;4.28;2.40;;;6.50;94.50;13.70;99048.00;;;;4998034;28;20206;-68
2020/12/25 07:09:44;;;;;;;3.85;2.25;;;6.50;94.50;13.50;99047.00;;;;4981825;28;20286;-68
2020/12/25 07:12:20;;;;;;;4.80;2.38;;;6.50;94.60;13.70;99042.00;;;;4981744;28;20207;-68
2020/12/25 07:14:46;;;;;;;5.43;2.88;;;6.50;94.60;13.70;99056.00;;;;4998643;28;20178;-68
2020/12/25 07:17:12;;;;;;;4.00;2.45;;;6.50;94.50;13.70;99058.00;;;;5014076;28;20209;-68
2020/12/25 07:19:39;;;;;;;4.20;2.40;;;6.50;94.50;13.50;99066.00;;;;5031419;28;20179;-68
2020/12/25 07:22:05;;;;;;;3.85;2.20;;;6.50;94.50;13.70;99057.00;;;;5030502;28;20207;-68
2020/12/25 07:24:31;;;;;;;3.63;2.08;;;6.50;94.50;13.60;99068.00;;;;5030432;28;20172;-68
2020/12/25 07:26:57;;;;;;;4.07;2.20;;;6.50;94.50;13.50;99065.00;;;;4996165;28;20233;-68
2020/12/25 07:29:24;;;;;;;4.20;2.30;;;6.50;94.50;13.70;99052.00;;;;5013902;28;20556;-68
2020/12/25 07:31:51;;;;;;;3.80;2.20;;;6.50;94.50;13.60;99051.00;;;;5013990;28;20461;-68
2020/12/25 07:34:20;;;;;;;4.40;2.63;;;6.50;94.50;13.60;99066.00;;;;4997243;28;20676;-68
2020/12/25 07:36:47;;;;;;;5.00;2.35;;;6.50;94.50;13.70;99056.00;;;;5013722;28;20833;-68
2020/12/25 07:39:13;;;;;;;4.28;2.40;;;6.50;94.50;13.70;99064.00;;;;5013868;28;20657;-68
2020/12/25 07:41:39;;;;;;;3.93;2.40;;;6.50;94.50;13.50;99062.00;;;;5013436;28;20236;-68
2020/12/25 07:44:06;;;;;;;3.90;2.10;;;6.50;94.50;13.50;99060.00;;;;5030776;28;20266;-68
2020/12/25 07:46:33;;;;;;;3.88;2.67;;;6.50;94.50;13.40;99063.00;;;;4997458;28;20301;-68
2020/12/25 07:48:59;;;;;;;3.90;2.10;;;6.50;94.50;13.70;99069.00;;;;4997669;28;20207;-68
2020/12/25 07:51:25;;;;;;;3.87;2.17;;;6.50;94.50;13.50;99062.00;;;;5013818;28;20220;-68
2020/12/25 07:53:55;;;;;;;4.47;2.50;;;6.50;94.50;13.70;99061.00;;;;4981038;28;20408;-68
2020/12/25 07:56:22;;;;;;;4.95;2.50;;;6.50;94.50;13.50;99065.00;;;;5013533;28;20458;-67
2020/12/25 07:58:51;;;;;;;3.35;2.05;;;6.40;94.50;13.70;99060.00;;;;4997757;28;20642;-68
2020/12/25 08:01:21;;;;;;;3.50;2.08;;;6.50;94.50;13.70;99075.00;;;;5012403;28;20183;-68
2020/12/25 08:03:47;;;;;;;3.90;2.35;;;6.50;94.50;13.60;99080.00;;;;4997771;28;20254;-68
2020/12/25 08:06:14;;;;;;;3.87;2.27;;;6.50;94.50;13.70;99031.00;;;;5029753;28;20262;-68
2020/12/25 08:08:51;;;;;;;3.17;1.80;;;6.50;94.50;13.70;99079.00;;;;4996581;28;20458;-68
2020/12/25 08:11:17;;;;;;;3.80;2.22;;;6.50;94.50;13.60;99072.00;;;;4998137;28;20179;-67
2020/12/25 08:13:45;;;;;;;3.50;1.92;;;6.50;94.50;13.50;99074.00;;;;5013658;28;20190;-68
2020/12/25 08:16:11;;;;;;;3.92;2.20;;;6.50;94.50;13.50;99085.00;;;;4996259;28;20187;-68
2020/12/25 08:18:37;;;;;;;4.30;2.37;;;6.40;94.50;13.60;99091.00;;;;5013155;28;20183;-67
2020/12/25 08:21:03;;;;;;;4.15;2.55;;;6.40;94.50;13.70;99101.00;;;;4996929;28;20174;-68
2020/12/25 08:23:36;;;;;;;3.85;2.30;;;6.50;94.50;13.60;99098.00;;;;4996411;28;20234;-68
2020/12/25 08:26:03;;;;;;;3.90;2.20;;;6.50;94.50;13.60;99092.00;;;;4997182;28;20244;-68
2020/12/25 08:28:32;;;;;;;3.83;2.20;;;6.50;94.50;13.80;99102.00;;;;4995704;28;20202;-68
2020/12/25 08:31:18;;;;;;;4.68;2.45;;;6.40;94.50;13.70;99094.00;;;;4996964;28;20225;-68
2020/12/25 08:33:57;;;;;;;3.58;1.92;;;6.50;94.50;13.70;99099.00;;;;5012613;28;20711;-68
2020/12/25 08:36:26;;;;;;;4.55;2.63;;;6.40;94.40;13.70;99102.00;;;;4994315;28;20234;-67
2020/12/25 08:38:51;;;;;;;3.80;2.30;;;6.40;94.80;13.90;99108.00;;;;5034158;28;20275;-67
2020/12/25 08:41:17;;;;;;;4.20;2.40;;;6.40;94.40;13.60;99106.00;;;;4993674;28;21098;-68
2020/12/25 08:43:43;;;;;;;3.67;2.37;;;6.40;94.40;13.60;99101.00;;;;5019607;28;20228;-67
2020/12/25 08:46:09;;;;;;;4.03;2.27;;;6.40;94.40;13.90;99099.00;;;;5031977;28;20186;-68
2020/12/25 08:48:48;;;;;;;3.93;2.33;;;6.50;94.50;13.70;99081.00;;;;5014688;28;20462;-68
2020/12/25 08:51:14;;;;;;;4.00;2.25;;;6.50;94.50;13.80;99118.00;;;;5016397;28;20955;-67
2020/12/25 08:53:52;;;;;;;3.63;2.05;;;6.50;94.50;13.90;99122.00;;;;5014933;28;20181;-68
2020/12/25 08:56:25;;;;;;;4.15;1.98;;;6.40;94.50;13.70;99130.00;;;;5020381;28;20221;-68
2020/12/25 08:58:59;;;;;;;4.15;2.50;;;6.50;94.50;13.70;99122.00;;;;5028414;28;20186;-68
2020/12/25 09:01:25;;;;;;;3.85;2.45;;;6.50;94.50;14.00;99139.00;;;;5028360;28;20187;-68
2020/12/25 09:03:51;;;;;;;4.65;2.50;;;6.50;94.50;13.80;99130.00;;;;5027913;28;20185;-66
2020/12/25 09:06:17;;;;;;;6.27;3.67;;;6.50;94.50;14.00;99143.00;;;;5011751;28;20277;-67
2020/12/25 09:08:43;;;;;;;6.50;3.23;;;6.50;94.30;13.70;99145.00;;;;5028801;28;20290;-67
2020/12/25 09:11:13;;;;;;;4.80;3.40;;;6.50;94.30;13.70;99149.00;;;;5028949;28;20412;-67
2020/12/25 09:13:39;;;;;;;4.45;2.92;;;6.50;94.30;13.90;99155.00;;;;5029305;28;20633;-67
2020/12/25 09:16:05;;;;;;;4.37;2.93;;;6.50;94.30;13.90;99145.00;;;;5030656;28;20179;-68
2020/12/25 09:18:31;;;;;;;9.20;3.50;;;6.40;94.40;14.00;99151.00;;;;5028215;28;20437;-68
2020/12/25 09:20:57;;;;;;;3.92;2.63;;;6.50;94.40;14.10;99131.00;;;;5012613;28;20423;-68
2020/12/25 09:23:23;;;;;;;5.10;3.17;;;6.50;94.40;13.90;99137.00;;;;5029650;28;20210;-68
2020/12/25 09:25:49;;;;;;;4.27;2.60;;;6.40;94.40;14.10;99137.00;;;;5028424;28;20649;-68
2020/12/25 09:28:14;;;;;;;4.90;2.60;;;6.50;94.40;14.20;99142.00;;;;5029540;28;20222;-68
2020/12/25 09:30:40;;;;;;;4.07;2.47;;;6.50;94.40;14.10;99146.00;;;;5029012;28;20441;-68
2020/12/25 09:33:06;;;;;;;4.27;2.43;;;6.50;94.40;14.00;99150.00;;;;5027585;28;20656;-68
2020/12/25 09:35:31;;;;;;;4.07;2.43;;;6.50;94.40;14.00;99147.00;;;;5028684;28;20187;-68
2020/12/25 09:37:57;;;;;;;4.47;3.00;;;6.50;94.40;14.00;99148.00;;;;5028421;28;20202;-68
2020/12/25 09:40:23;;;;;;;4.20;2.70;;;6.50;94.40;14.00;99151.00;;;;5029376;28;20348;-68
2020/12/25 09:42:48;;;;;;;4.67;2.57;;;6.50;94.40;13.90;99147.00;;;;5028441;28;20281;-68
2020/12/25 09:45:14;;;;;;;3.90;2.17;;;6.50;94.40;14.10;99144.00;;;;5028613;28;20183;-68
2020/12/25 09:47:40;;;;;;;4.00;2.40;;;6.50;94.40;14.00;99142.00;;;;5027548;28;20218;-68
2020/12/25 09:50:05;;;;;;;3.80;2.20;;;6.50;94.40;14.10;99132.00;;;;5028615;28;20526;-68
2020/12/25 09:52:31;;;;;;;5.00;2.93;;;6.50;94.40;14.00;99129.00;;;;5028160;28;20572;-68
2020/12/25 09:54:57;;;;;;;3.93;2.20;;;6.50;94.80;13.90;99129.00;;;;5011877;28;20696;-68
2020/12/25 09:57:23;;;;;;;4.13;2.60;;;6.50;94.40;14.10;99142.00;;;;5028518;28;20310;-67
2020/12/25 09:59:49;;;;;;;4.50;2.33;;;6.50;94.40;14.00;99146.00;;;;5028172;28;20689;-69
2020/12/25 10:02:16;;;;;;;5.27;2.73;;;6.50;94.40;13.90;99145.00;;;;5011479;28;20206;-67
2020/12/25 10:04:42;;;;;;;4.50;2.60;;;6.50;94.40;13.90;99138.00;;;;5014546;28;20538;-68
2020/12/25 10:07:07;;;;;;;4.10;2.60;;;6.50;94.40;14.00;99147.00;;;;5015952;28;20205;-68
2020/12/25 10:09:33;;;;;;;3.77;2.43;;;6.50;94.40;13.90;99139.00;;;;5032487;28;20222;-68
2020/12/25 10:11:59;;;;;;;3.80;2.43;;;6.50;94.40;14.00;99138.00;;;;5032132;28;20246;-68
2020/12/25 10:14:24;;;;;;;3.60;2.00;;;6.50;94.40;14.10;99154.00;;;;5015176;28;20183;-68
2020/12/25 10:16:50;;;;;;;3.80;2.27;;;6.50;94.40;14.00;99145.00;;;;5031458;28;20285;-68
2020/12/25 10:19:16;;;;;;;4.27;2.30;;;6.50;94.40;14.00;99151.00;;;;5014636;28;20183;-68
2020/12/25 10:21:42;;;;;;;4.05;2.60;;;6.50;94.40;13.70;99157.00;;;;5031435;28;20515;-68
2020/12/25 10:24:07;;;;;;;3.60;2.10;;;6.50;94.40;14.00;99151.00;;;;5031569;28;20333;-68
2020/12/25 10:26:33;;;;;;;3.87;2.27;;;6.50;94.40;14.10;99150.00;;;;5031852;28;20241;-67
2020/12/25 10:28:59;;;;;;;12.60;7.53;;;6.50;94.40;13.80;99147.00;;;;5030804;28;20673;-67
2020/12/25 10:31:24;;;;;;;11.20;8.97;;;6.50;94.40;14.20;99142.00;;;;5031755;28;20293;-67
2020/12/25 10:33:50;;;;;;;11.90;8.37;;;6.50;94.30;14.10;99150.00;;;;5032755;28;20225;-68
2020/12/25 10:36:16;;;;;;;9.30;7.17;;;6.50;94.20;14.10;99159.00;;;;5014203;28;20724;-67
2020/12/25 10:38:41;;;;;;;12.87;7.47;;;6.50;94.10;14.30;99154.00;;;;5030854;28;20183;-66
2020/12/25 10:41:09;;;;;;;9.40;7.00;;;6.60;93.90;14.40;99156.00;;;;5031400;28;20210;-67
2020/12/25 10:43:35;;;;;;;9.30;6.03;;;6.60;93.90;14.20;99159.00;;;;5032544;28;20187;-68
2020/12/25 10:46:00;;;;;;;8.55;6.07;;;6.60;94.00;14.40;99158.00;;;;5046611;28;20210;-68
2020/12/25 10:48:26;;;;;;;9.23;6.10;;;6.60;93.90;14.40;99162.00;;;;5019949;28;20206;-68
2020/12/25 10:50:52;;;;;;;7.67;6.50;;;6.60;94.00;14.10;99164.00;;;;5032280;28;20178;-68
2020/12/25 10:53:17;;;;;;;7.50;5.63;;;6.60;94.00;13.90;99173.00;;;;5033945;28;20559;-68
2020/12/25 10:55:43;;;;;;;9.20;6.40;;;6.60;94.20;13.70;99168.00;;;;5033831;28;20178;-68
2020/12/25 10:58:09;;;;;;;7.50;6.10;;;6.60;94.30;13.70;99171.00;;;;5050067;28;20210;-68
2020/12/25 11:00:34;;;;;;;9.40;6.67;;;6.60;94.30;13.90;99174.00;;;;5045750;28;20245;-68
2020/12/25 11:03:00;;;;;;;10.03;6.37;;;6.60;94.30;13.60;99179.00;;;;5030029;28;20229;-68